sensor_id;sensor_type;location;lat;lon;timestamp;temperature;humidity
69739;DHT22;66905;51.012;4.724;2023-02-28T00:01:23;-1.00;86.10
69739;DHT22;66905;51.012;4.724;2023-02-28T00:03:49;-1.00;86.10
69739;DHT22;66905;51.012;4.724;2023-02-28T00:06:15;-0.90;85.10
69739;DHT22;66905;51.012;4.724;2023-02-28T00:08:42;-0.90;85.10
69739;DHT22;66905;51.012;4.724;2023-02-28T00:11:12;-1.00;85.40
69739;DHT22;66905;51.012;4.724;2023-02-28T00:13:41;-1.10;85.70
69739;DHT22;66905;51.012;4.724;2023-02-28T00:16:10;-1.00;85.70
69739;DHT22;66905;51.012;4.724;2023-02-28T00:18:37;-1.10;85.60
69739;DHT22;66905;51.012;4.724;2023-02-28T00:21:05;-1.10;85.70
69739;DHT22;66905;51.012;4.724;2023-02-28T00:23:34;-1.10;86.00
69739;DHT22;66905;51.012;4.724;2023-02-28T00:26:00;-1.10;86.30
69739;DHT22;66905;51.012;4.724;2023-02-28T00:28:26;-1.00;86.70
69739;DHT22;66905;51.012;4.724;2023-02-28T00:30:54;-0.90;86.80
69739;DHT22;66905;51.012;4.724;2023-02-28T00:33:22;-0.80;86.40
69739;DHT22;66905;51.012;4.724;2023-02-28T00:35:48;-0.80;85.80
69739;DHT22;66905;51.012;4.724;2023-02-28T00:38:16;-0.90;85.50
69739;DHT22;66905;51.012;4.724;2023-02-28T00:40:42;-0.90;85.20
69739;DHT22;66905;51.012;4.724;2023-02-28T00:43:10;-0.90;85.90
69739;DHT22;66905;51.012;4.724;2023-02-28T00:45:36;-1.00;85.20
69739;DHT22;66905;51.012;4.724;2023-02-28T00:48:02;-1.00;85.30
69739;DHT22;66905;51.012;4.724;2023-02-28T00:50:27;-1.10;85.60
69739;DHT22;66905;51.012;4.724;2023-02-28T00:52:55;-1.20;86.00
69739;DHT22;66905;51.012;4.724;2023-02-28T00:55:23;-1.30;85.90
69739;DHT22;66905;51.012;4.724;2023-02-28T00:57:49;-1.30;86.00
69739;DHT22;66905;51.012;4.724;2023-02-28T01:00:16;-1.30;85.90
69739;DHT22;66905;51.012;4.724;2023-02-28T01:02:42;-1.30;86.00
69739;DHT22;66905;51.012;4.724;2023-02-28T01:05:08;-1.40;86.20
69739;DHT22;66905;51.012;4.724;2023-02-28T01:07:36;-1.40;86.20
69739;DHT22;66905;51.012;4.724;2023-02-28T01:10:02;-1.40;86.10
69739;DHT22;66905;51.012;4.724;2023-02-28T01:12:30;-1.50;86.10
69739;DHT22;66905;51.012;4.724;2023-02-28T01:14:55;-1.50;86.00
69739;DHT22;66905;51.012;4.724;2023-02-28T01:17:21;-1.50;86.60
69739;DHT22;66905;51.012;4.724;2023-02-28T01:19:49;-1.50;86.20
69739;DHT22;66905;51.012;4.724;2023-02-28T01:22:15;-1.40;85.90
69739;DHT22;66905;51.012;4.724;2023-02-28T01:24:41;-1.30;85.70
69739;DHT22;66905;51.012;4.724;2023-02-28T01:27:08;-1.40;85.50
69739;DHT22;66905;51.012;4.724;2023-02-28T01:29:34;-1.40;85.80
69739;DHT22;66905;51.012;4.724;2023-02-28T01:32:00;-1.40;85.50
69739;DHT22;66905;51.012;4.724;2023-02-28T01:34:28;-1.40;86.40
69739;DHT22;66905;51.012;4.724;2023-02-28T01:36:53;-1.40;85.30
69739;DHT22;66905;51.012;4.724;2023-02-28T01:39:19;-1.30;85.70
69739;DHT22;66905;51.012;4.724;2023-02-28T01:41:45;-1.40;85.90
69739;DHT22;66905;51.012;4.724;2023-02-28T01:47:14;-1.50;86.40
69739;DHT22;66905;51.012;4.724;2023-02-28T01:49:42;-1.50;86.50
69739;DHT22;66905;51.012;4.724;2023-02-28T01:52:11;-1.60;86.70
69739;DHT22;66905;51.012;4.724;2023-02-28T01:54:40;-1.60;86.30
69739;DHT22;66905;51.012;4.724;2023-02-28T01:57:12;-1.50;86.00
69739;DHT22;66905;51.012;4.724;2023-02-28T02:00:01;-1.70;85.90
69739;DHT22;66905;51.012;4.724;2023-02-28T02:02:30;-1.70;86.30
69739;DHT22;66905;51.012;4.724;2023-02-28T02:05:09;-1.70;86.50
69739;DHT22;66905;51.012;4.724;2023-02-28T02:07:39;-1.70;86.80
69739;DHT22;66905;51.012;4.724;2023-02-28T02:15:47;-1.80;87.20
69739;DHT22;66905;51.012;4.724;2023-02-28T02:21:22;-1.90;87.30
69739;DHT22;66905;51.012;4.724;2023-02-28T02:42:51;-2.10;87.50
69739;DHT22;66905;51.012;4.724;2023-02-28T02:45:54;-2.10;87.90
69739;DHT22;66905;51.012;4.724;2023-02-28T02:48:25;-2.10;87.40
69739;DHT22;66905;51.012;4.724;2023-02-28T02:50:55;-2.10;87.30
69739;DHT22;66905;51.012;4.724;2023-02-28T02:53:30;-2.20;87.10
69739;DHT22;66905;51.012;4.724;2023-02-28T02:55:58;-2.20;87.60
69739;DHT22;66905;51.012;4.724;2023-02-28T02:58:31;-2.20;87.70
69739;DHT22;66905;51.012;4.724;2023-02-28T03:01:00;-2.20;88.00
69739;DHT22;66905;51.012;4.724;2023-02-28T03:03:31;-2.20;87.80
69739;DHT22;66905;51.012;4.724;2023-02-28T03:06:00;-2.20;87.80
69739;DHT22;66905;51.012;4.724;2023-02-28T03:08:26;-2.30;87.50
69739;DHT22;66905;51.012;4.724;2023-02-28T03:10:59;-2.30;87.70
69739;DHT22;66905;51.012;4.724;2023-02-28T03:25:10;-2.30;87.90
69739;DHT22;66905;51.012;4.724;2023-02-28T03:35:55;-2.40;87.90
69739;DHT22;66905;51.012;4.724;2023-02-28T03:38:29;-2.40;88.20
69739;DHT22;66905;51.012;4.724;2023-02-28T03:43:38;-2.40;88.60
69739;DHT22;66905;51.012;4.724;2023-02-28T03:46:10;-2.40;88.50
69739;DHT22;66905;51.012;4.724;2023-02-28T03:48:44;-2.30;88.20
69739;DHT22;66905;51.012;4.724;2023-02-28T03:51:16;-2.40;88.10
69739;DHT22;66905;51.012;4.724;2023-02-28T03:53:46;-2.40;87.90
69739;DHT22;66905;51.012;4.724;2023-02-28T03:56:24;-2.40;88.20
69739;DHT22;66905;51.012;4.724;2023-02-28T03:59:13;-2.50;88.70
69739;DHT22;66905;51.012;4.724;2023-02-28T04:01:46;-2.50;89.00
69739;DHT22;66905;51.012;4.724;2023-02-28T04:04:13;-2.50;89.30
69739;DHT22;66905;51.012;4.724;2023-02-28T04:06:40;-2.40;88.90
69739;DHT22;66905;51.012;4.724;2023-02-28T04:09:08;-2.40;88.90
69739;DHT22;66905;51.012;4.724;2023-02-28T04:14:04;-2.30;89.10
69739;DHT22;66905;51.012;4.724;2023-02-28T04:16:31;-2.20;89.40
69739;DHT22;66905;51.012;4.724;2023-02-28T04:18:59;-2.10;89.90
69739;DHT22;66905;51.012;4.724;2023-02-28T04:21:29;-2.00;90.00
69739;DHT22;66905;51.012;4.724;2023-02-28T04:23:57;-1.90;89.90
69739;DHT22;66905;51.012;4.724;2023-02-28T04:26:31;-1.80;90.00
69739;DHT22;66905;51.012;4.724;2023-02-28T04:29:00;-1.80;90.00
69739;DHT22;66905;51.012;4.724;2023-02-28T04:31:26;-1.70;89.70
69739;DHT22;66905;51.012;4.724;2023-02-28T04:33:52;-1.50;89.00
69739;DHT22;66905;51.012;4.724;2023-02-28T04:36:18;-1.50;88.40
69739;DHT22;66905;51.012;4.724;2023-02-28T04:38:45;-1.50;88.20
69739;DHT22;66905;51.012;4.724;2023-02-28T04:41:13;-1.40;88.20
69739;DHT22;66905;51.012;4.724;2023-02-28T04:43:42;-1.40;87.60
69739;DHT22;66905;51.012;4.724;2023-02-28T04:46:08;-1.30;87.40
69739;DHT22;66905;51.012;4.724;2023-02-28T04:48:36;-1.40;87.70
69739;DHT22;66905;51.012;4.724;2023-02-28T04:51:03;-1.30;88.30
69739;DHT22;66905;51.012;4.724;2023-02-28T04:53:29;-1.20;88.30
69739;DHT22;66905;51.012;4.724;2023-02-28T04:55:58;-1.00;88.30
69739;DHT22;66905;51.012;4.724;2023-02-28T04:58:26;-0.90;88.00
69739;DHT22;66905;51.012;4.724;2023-02-28T05:01:04;-0.90;87.80
69739;DHT22;66905;51.012;4.724;2023-02-28T05:03:42;-0.80;88.50
69739;DHT22;66905;51.012;4.724;2023-02-28T05:06:09;-0.70;88.60
69739;DHT22;66905;51.012;4.724;2023-02-28T05:08:34;-0.60;88.90
69739;DHT22;66905;51.012;4.724;2023-02-28T05:11:03;-0.50;88.10
69739;DHT22;66905;51.012;4.724;2023-02-28T05:13:29;-0.50;87.40
69739;DHT22;66905;51.012;4.724;2023-02-28T05:15:56;-0.40;87.00
69739;DHT22;66905;51.012;4.724;2023-02-28T05:18:21;-0.30;86.60
69739;DHT22;66905;51.012;4.724;2023-02-28T05:20:47;-0.30;86.40
69739;DHT22;66905;51.012;4.724;2023-02-28T05:23:16;-0.20;86.50
69739;DHT22;66905;51.012;4.724;2023-02-28T05:25:45;-0.20;86.40
69739;DHT22;66905;51.012;4.724;2023-02-28T05:28:11;-0.20;85.80
69739;DHT22;66905;51.012;4.724;2023-02-28T05:30:36;-0.20;85.80
69739;DHT22;66905;51.012;4.724;2023-02-28T05:33:02;-0.20;86.00
69739;DHT22;66905;51.012;4.724;2023-02-28T05:35:28;-0.20;86.50
69739;DHT22;66905;51.012;4.724;2023-02-28T05:37:55;-0.10;86.80
69739;DHT22;66905;51.012;4.724;2023-02-28T05:40:21;-0.10;86.60
69739;DHT22;66905;51.012;4.724;2023-02-28T05:42:50;0.00;86.50
69739;DHT22;66905;51.012;4.724;2023-02-28T05:45:16;0.10;85.50
69739;DHT22;66905;51.012;4.724;2023-02-28T05:47:42;0.10;85.60
69739;DHT22;66905;51.012;4.724;2023-02-28T05:50:11;0.20;85.90
69739;DHT22;66905;51.012;4.724;2023-02-28T05:52:36;0.20;85.70
69739;DHT22;66905;51.012;4.724;2023-02-28T05:55:03;0.20;85.60
69739;DHT22;66905;51.012;4.724;2023-02-28T05:57:29;0.10;85.80
69739;DHT22;66905;51.012;4.724;2023-02-28T05:59:55;0.20;85.60
69739;DHT22;66905;51.012;4.724;2023-02-28T06:02:21;0.40;85.10
69739;DHT22;66905;51.012;4.724;2023-02-28T06:04:49;0.40;85.20
69739;DHT22;66905;51.012;4.724;2023-02-28T06:07:17;0.40;85.30
69739;DHT22;66905;51.012;4.724;2023-02-28T06:09:45;0.30;84.60
69739;DHT22;66905;51.012;4.724;2023-02-28T06:12:11;0.50;84.90
69739;DHT22;66905;51.012;4.724;2023-02-28T06:14:36;0.50;84.10
69739;DHT22;66905;51.012;4.724;2023-02-28T06:17:04;0.50;84.80
69739;DHT22;66905;51.012;4.724;2023-02-28T06:19:30;0.50;84.90
69739;DHT22;66905;51.012;4.724;2023-02-28T06:21:56;0.50;84.50
69739;DHT22;66905;51.012;4.724;2023-02-28T06:24:23;0.60;84.20
69739;DHT22;66905;51.012;4.724;2023-02-28T06:26:50;0.70;83.40
69739;DHT22;66905;51.012;4.724;2023-02-28T06:29:16;0.60;83.10
69739;DHT22;66905;51.012;4.724;2023-02-28T06:31:44;0.60;83.80
69739;DHT22;66905;51.012;4.724;2023-02-28T06:34:10;0.60;83.90
69739;DHT22;66905;51.012;4.724;2023-02-28T06:36:40;0.60;83.80
69739;DHT22;66905;51.012;4.724;2023-02-28T06:39:09;0.70;83.60
69739;DHT22;66905;51.012;4.724;2023-02-28T06:41:35;0.70;83.90
69739;DHT22;66905;51.012;4.724;2023-02-28T06:44:08;0.80;83.60
69739;DHT22;66905;51.012;4.724;2023-02-28T06:46:36;0.90;83.60
69739;DHT22;66905;51.012;4.724;2023-02-28T06:49:03;1.00;84.30
69739;DHT22;66905;51.012;4.724;2023-02-28T06:51:30;1.00;83.60
69739;DHT22;66905;51.012;4.724;2023-02-28T06:53:56;1.10;83.70
69739;DHT22;66905;51.012;4.724;2023-02-28T06:56:21;1.20;81.80
69739;DHT22;66905;51.012;4.724;2023-02-28T06:58:48;1.30;81.50
69739;DHT22;66905;51.012;4.724;2023-02-28T07:01:15;1.30;82.10
69739;DHT22;66905;51.012;4.724;2023-02-28T07:03:45;1.40;81.40
69739;DHT22;66905;51.012;4.724;2023-02-28T07:06:11;1.50;80.60
69739;DHT22;66905;51.012;4.724;2023-02-28T07:08:39;1.40;80.60
69739;DHT22;66905;51.012;4.724;2023-02-28T07:11:06;1.30;80.70
69739;DHT22;66905;51.012;4.724;2023-02-28T07:13:34;1.40;81.00
69739;DHT22;66905;51.012;4.724;2023-02-28T07:16:03;1.50;81.70
69739;DHT22;66905;51.012;4.724;2023-02-28T07:18:29;1.50;81.90
69739;DHT22;66905;51.012;4.724;2023-02-28T07:20:55;1.70;80.30
69739;DHT22;66905;51.012;4.724;2023-02-28T07:23:23;1.70;80.10
69739;DHT22;66905;51.012;4.724;2023-02-28T07:25:51;1.80;78.70
69739;DHT22;66905;51.012;4.724;2023-02-28T07:28:22;2.00;78.40
69739;DHT22;66905;51.012;4.724;2023-02-28T07:30:50;1.90;78.00
69739;DHT22;66905;51.012;4.724;2023-02-28T07:33:16;1.90;78.30
69739;DHT22;66905;51.012;4.724;2023-02-28T07:35:44;1.90;77.70
69739;DHT22;66905;51.012;4.724;2023-02-28T07:38:10;1.90;78.10
69739;DHT22;66905;51.012;4.724;2023-02-28T07:40:36;1.90;77.40
69739;DHT22;66905;51.012;4.724;2023-02-28T07:43:04;2.30;76.40
69739;DHT22;66905;51.012;4.724;2023-02-28T07:45:33;2.20;75.20
69739;DHT22;66905;51.012;4.724;2023-02-28T07:48:01;2.20;75.20
69739;DHT22;66905;51.012;4.724;2023-02-28T07:50:27;2.30;76.20
69739;DHT22;66905;51.012;4.724;2023-02-28T07:52:58;2.20;74.90
69739;DHT22;66905;51.012;4.724;2023-02-28T07:55:26;2.30;74.50
69739;DHT22;66905;51.012;4.724;2023-02-28T07:57:52;2.30;74.20
69739;DHT22;66905;51.012;4.724;2023-02-28T08:00:17;2.20;74.80
69739;DHT22;66905;51.012;4.724;2023-02-28T08:02:43;2.50;73.90
69739;DHT22;66905;51.012;4.724;2023-02-28T08:05:11;3.10;71.50
69739;DHT22;66905;51.012;4.724;2023-02-28T08:07:37;3.40;69.30
69739;DHT22;66905;51.012;4.724;2023-02-28T08:10:03;3.60;67.70
69739;DHT22;66905;51.012;4.724;2023-02-28T08:12:31;4.10;67.70
69739;DHT22;66905;51.012;4.724;2023-02-28T08:14:59;4.80;63.00
69739;DHT22;66905;51.012;4.724;2023-02-28T08:17:25;5.30;59.70
69739;DHT22;66905;51.012;4.724;2023-02-28T08:19:50;5.40;59.80
69739;DHT22;66905;51.012;4.724;2023-02-28T08:22:16;5.90;56.70
69739;DHT22;66905;51.012;4.724;2023-02-28T08:24:45;6.10;58.30
69739;DHT22;66905;51.012;4.724;2023-02-28T08:27:14;6.80;56.20
69739;DHT22;66905;51.012;4.724;2023-02-28T08:29:40;7.60;51.10
69739;DHT22;66905;51.012;4.724;2023-02-28T08:32:07;7.80;51.20
69739;DHT22;66905;51.012;4.724;2023-02-28T08:34:32;8.10;49.80
69739;DHT22;66905;51.012;4.724;2023-02-28T08:36:58;8.30;48.90
69739;DHT22;66905;51.012;4.724;2023-02-28T08:39:24;8.20;48.70
69739;DHT22;66905;51.012;4.724;2023-02-28T08:41:52;8.00;49.00
69739;DHT22;66905;51.012;4.724;2023-02-28T08:44:18;8.20;47.60
69739;DHT22;66905;51.012;4.724;2023-02-28T08:46:43;8.20;46.40
69739;DHT22;66905;51.012;4.724;2023-02-28T08:49:10;7.90;48.00
69739;DHT22;66905;51.012;4.724;2023-02-28T08:51:35;8.00;48.50
69739;DHT22;66905;51.012;4.724;2023-02-28T08:54:03;8.70;46.20
69739;DHT22;66905;51.012;4.724;2023-02-28T08:56:29;8.30;45.80
69739;DHT22;66905;51.012;4.724;2023-02-28T08:58:58;8.30;47.10
69739;DHT22;66905;51.012;4.724;2023-02-28T09:01:28;8.70;46.30
69739;DHT22;66905;51.012;4.724;2023-02-28T09:04:00;9.20;45.10
69739;DHT22;66905;51.012;4.724;2023-02-28T09:06:29;8.90;44.50
69739;DHT22;66905;51.012;4.724;2023-02-28T09:08:58;9.30;44.60
69739;DHT22;66905;51.012;4.724;2023-02-28T09:11:25;9.90;43.30
69739;DHT22;66905;51.012;4.724;2023-02-28T09:13:53;9.70;43.00
69739;DHT22;66905;51.012;4.724;2023-02-28T09:16:21;9.60;42.40
69739;DHT22;66905;51.012;4.724;2023-02-28T09:18:47;9.40;42.30
69739;DHT22;66905;51.012;4.724;2023-02-28T09:21:15;9.00;41.80
69739;DHT22;66905;51.012;4.724;2023-02-28T09:23:43;8.70;42.80
69739;DHT22;66905;51.012;4.724;2023-02-28T09:26:22;8.20;44.90
69739;DHT22;66905;51.012;4.724;2023-02-28T09:28:51;8.50;43.30
69739;DHT22;66905;51.012;4.724;2023-02-28T09:31:20;8.30;43.30
69739;DHT22;66905;51.012;4.724;2023-02-28T09:33:50;8.70;44.10
69739;DHT22;66905;51.012;4.724;2023-02-28T09:36:16;8.90;42.10
69739;DHT22;66905;51.012;4.724;2023-02-28T09:38:44;8.80;42.10
69739;DHT22;66905;51.012;4.724;2023-02-28T09:41:17;9.10;45.40
69739;DHT22;66905;51.012;4.724;2023-02-28T09:43:49;9.90;39.60
69739;DHT22;66905;51.012;4.724;2023-02-28T09:49:21;9.00;39.50
69739;DHT22;66905;51.012;4.724;2023-02-28T09:54:29;9.90;39.70
69739;DHT22;66905;51.012;4.724;2023-02-28T09:57:04;9.60;37.00
69739;DHT22;66905;51.012;4.724;2023-02-28T10:05:22;8.80;38.30
69739;DHT22;66905;51.012;4.724;2023-02-28T10:10:37;8.50;38.60
69739;DHT22;66905;51.012;4.724;2023-02-28T10:13:12;9.00;38.30
69739;DHT22;66905;51.012;4.724;2023-02-28T10:15:41;9.90;36.80
69739;DHT22;66905;51.012;4.724;2023-02-28T10:18:12;10.30;35.70
69739;DHT22;66905;51.012;4.724;2023-02-28T10:20:41;10.10;35.50
69739;DHT22;66905;51.012;4.724;2023-02-28T10:25:37;8.80;38.00
69739;DHT22;66905;51.012;4.724;2023-02-28T10:28:14;9.20;36.70
69739;DHT22;66905;51.012;4.724;2023-02-28T10:30:46;8.80;38.20
69739;DHT22;66905;51.012;4.724;2023-02-28T10:33:38;8.90;38.10
69739;DHT22;66905;51.012;4.724;2023-02-28T10:36:05;8.80;36.80
69739;DHT22;66905;51.012;4.724;2023-02-28T10:38:38;8.80;36.00
69739;DHT22;66905;51.012;4.724;2023-02-28T10:41:28;8.80;36.30
69739;DHT22;66905;51.012;4.724;2023-02-28T10:44:22;9.20;36.50
69739;DHT22;66905;51.012;4.724;2023-02-28T10:46:49;9.60;34.60
69739;DHT22;66905;51.012;4.724;2023-02-28T10:49:27;10.00;35.20
69739;DHT22;66905;51.012;4.724;2023-02-28T10:52:03;9.70;34.90
69739;DHT22;66905;51.012;4.724;2023-02-28T10:54:37;9.10;35.40
69739;DHT22;66905;51.012;4.724;2023-02-28T10:59:35;10.30;35.40
69739;DHT22;66905;51.012;4.724;2023-02-28T11:02:31;10.90;34.00
69739;DHT22;66905;51.012;4.724;2023-02-28T11:04:59;11.50;33.60
69739;DHT22;66905;51.012;4.724;2023-02-28T11:07:26;11.80;33.50
69739;DHT22;66905;51.012;4.724;2023-02-28T11:09:55;12.30;30.30
69739;DHT22;66905;51.012;4.724;2023-02-28T11:12:38;13.00;30.10
69739;DHT22;66905;51.012;4.724;2023-02-28T11:15:25;12.00;30.70
69739;DHT22;66905;51.012;4.724;2023-02-28T11:18:22;12.00;31.30
69739;DHT22;66905;51.012;4.724;2023-02-28T11:20:51;12.10;30.90
69739;DHT22;66905;51.012;4.724;2023-02-28T11:23:19;11.70;31.70
69739;DHT22;66905;51.012;4.724;2023-02-28T11:25:54;11.10;32.70
69739;DHT22;66905;51.012;4.724;2023-02-28T11:28:31;10.20;33.70
69739;DHT22;66905;51.012;4.724;2023-02-28T11:31:16;10.30;35.20
69739;DHT22;66905;51.012;4.724;2023-02-28T11:38:41;10.40;33.60
69739;DHT22;66905;51.012;4.724;2023-02-28T11:47:15;11.00;32.30
69739;DHT22;66905;51.012;4.724;2023-02-28T11:52:29;10.00;34.00
69739;DHT22;66905;51.012;4.724;2023-02-28T12:05:49;10.30;33.30
69739;DHT22;66905;51.012;4.724;2023-02-28T12:09:11;10.80;32.50
69739;DHT22;66905;51.012;4.724;2023-02-28T12:22:12;9.30;37.90
69739;DHT22;66905;51.012;4.724;2023-02-28T12:27:27;9.80;33.40
69739;DHT22;66905;51.012;4.724;2023-02-28T12:30:01;9.70;34.00
69739;DHT22;66905;51.012;4.724;2023-02-28T12:32:32;9.70;32.10
69739;DHT22;66905;51.012;4.724;2023-02-28T12:40:16;8.80;34.50
69739;DHT22;66905;51.012;4.724;2023-02-28T12:42:50;9.00;34.50
69739;DHT22;66905;51.012;4.724;2023-02-28T12:45:24;9.30;34.70
69739;DHT22;66905;51.012;4.724;2023-02-28T12:48:04;9.60;33.50
69739;DHT22;66905;51.012;4.724;2023-02-28T12:50:36;9.60;33.70
69739;DHT22;66905;51.012;4.724;2023-02-28T12:53:17;9.80;33.80
69739;DHT22;66905;51.012;4.724;2023-02-28T12:58:35;9.90;33.30
69739;DHT22;66905;51.012;4.724;2023-02-28T13:01:48;9.40;37.10
69739;DHT22;66905;51.012;4.724;2023-02-28T13:09:22;8.70;36.10
69739;DHT22;66905;51.012;4.724;2023-02-28T13:11:54;8.50;35.70
69739;DHT22;66905;51.012;4.724;2023-02-28T13:19:42;8.50;36.80
69739;DHT22;66905;51.012;4.724;2023-02-28T13:27:38;8.30;36.10
69739;DHT22;66905;51.012;4.724;2023-02-28T13:38:43;7.90;36.10
69739;DHT22;66905;51.012;4.724;2023-02-28T14:00:23;8.10;37.20
69739;DHT22;66905;51.012;4.724;2023-02-28T14:05:44;8.60;36.70
69739;DHT22;66905;51.012;4.724;2023-02-28T14:10:44;8.20;37.10
69739;DHT22;66905;51.012;4.724;2023-02-28T14:13:42;8.30;37.20
69739;DHT22;66905;51.012;4.724;2023-02-28T14:16:19;8.50;36.90
69739;DHT22;66905;51.012;4.724;2023-02-28T14:18:58;8.50;38.40
69739;DHT22;66905;51.012;4.724;2023-02-28T14:21:27;8.30;37.00
69739;DHT22;66905;51.012;4.724;2023-02-28T14:35:16;8.30;37.80
69739;DHT22;66905;51.012;4.724;2023-02-28T14:37:44;7.90;38.90
69739;DHT22;66905;51.012;4.724;2023-02-28T14:40:33;8.00;38.40
69739;DHT22;66905;51.012;4.724;2023-02-28T14:43:05;7.90;39.20
69739;DHT22;66905;51.012;4.724;2023-02-28T14:45:35;8.00;40.80
69739;DHT22;66905;51.012;4.724;2023-02-28T14:48:04;7.90;39.60
69739;DHT22;66905;51.012;4.724;2023-02-28T14:50:36;7.90;38.90
69739;DHT22;66905;51.012;4.724;2023-02-28T14:53:09;7.80;39.80
69739;DHT22;66905;51.012;4.724;2023-02-28T14:55:45;8.30;38.40
69739;DHT22;66905;51.012;4.724;2023-02-28T14:58:27;8.20;38.00
69739;DHT22;66905;51.012;4.724;2023-02-28T15:00:56;8.00;39.10
69739;DHT22;66905;51.012;4.724;2023-02-28T15:06:01;8.10;38.90
69739;DHT22;66905;51.012;4.724;2023-02-28T15:08:28;8.10;37.60
69739;DHT22;66905;51.012;4.724;2023-02-28T15:11:20;8.10;38.60
69739;DHT22;66905;51.012;4.724;2023-02-28T15:13:51;8.10;37.80
69739;DHT22;66905;51.012;4.724;2023-02-28T15:16:21;7.80;38.40
69739;DHT22;66905;51.012;4.724;2023-02-28T15:19:00;7.80;38.90
69739;DHT22;66905;51.012;4.724;2023-02-28T15:21:39;7.70;38.80
69739;DHT22;66905;51.012;4.724;2023-02-28T15:26:57;7.20;40.80
69739;DHT22;66905;51.012;4.724;2023-02-28T15:29:25;6.90;40.80
69739;DHT22;66905;51.012;4.724;2023-02-28T15:32:07;6.60;41.20
69739;DHT22;66905;51.012;4.724;2023-02-28T15:34:43;6.30;42.50
69739;DHT22;66905;51.012;4.724;2023-02-28T15:43:14;5.90;43.10
69739;DHT22;66905;51.012;4.724;2023-02-28T15:45:47;5.90;42.90
69739;DHT22;66905;51.012;4.724;2023-02-28T15:48:21;5.80;43.80
69739;DHT22;66905;51.012;4.724;2023-02-28T15:50:52;5.70;43.50
69739;DHT22;66905;51.012;4.724;2023-02-28T15:53:37;5.70;44.10
69739;DHT22;66905;51.012;4.724;2023-02-28T15:56:12;5.70;45.00
69739;DHT22;66905;51.012;4.724;2023-02-28T15:58:42;5.70;45.00
69739;DHT22;66905;51.012;4.724;2023-02-28T16:01:29;5.60;44.70
69739;DHT22;66905;51.012;4.724;2023-02-28T16:04:04;5.60;45.10
69739;DHT22;66905;51.012;4.724;2023-02-28T16:09:14;5.40;45.70
69739;DHT22;66905;51.012;4.724;2023-02-28T16:11:48;5.40;46.40
69739;DHT22;66905;51.012;4.724;2023-02-28T16:14:18;5.50;45.70
69739;DHT22;66905;51.012;4.724;2023-02-28T16:16:47;5.30;45.60
69739;DHT22;66905;51.012;4.724;2023-02-28T16:19:14;5.50;46.20
69739;DHT22;66905;51.012;4.724;2023-02-28T16:21:42;5.40;45.60
69739;DHT22;66905;51.012;4.724;2023-02-28T16:24:07;5.40;45.30
69739;DHT22;66905;51.012;4.724;2023-02-28T16:26:33;5.40;47.00
69739;DHT22;66905;51.012;4.724;2023-02-28T16:29:01;5.30;45.80
69739;DHT22;66905;51.012;4.724;2023-02-28T16:31:27;5.20;46.10
69739;DHT22;66905;51.012;4.724;2023-02-28T16:33:54;5.20;46.40
69739;DHT22;66905;51.012;4.724;2023-02-28T16:36:23;5.20;46.40
69739;DHT22;66905;51.012;4.724;2023-02-28T16:38:52;5.20;46.00
69739;DHT22;66905;51.012;4.724;2023-02-28T16:41:22;5.20;45.60
69739;DHT22;66905;51.012;4.724;2023-02-28T16:43:52;5.10;46.30
69739;DHT22;66905;51.012;4.724;2023-02-28T16:46:19;5.10;46.10
69739;DHT22;66905;51.012;4.724;2023-02-28T16:48:46;5.10;46.90
69739;DHT22;66905;51.012;4.724;2023-02-28T16:51:17;5.10;46.90
69739;DHT22;66905;51.012;4.724;2023-02-28T16:53:43;5.00;46.80
69739;DHT22;66905;51.012;4.724;2023-02-28T16:58:44;5.00;46.80
69739;DHT22;66905;51.012;4.724;2023-02-28T17:01:09;5.00;46.80
69739;DHT22;66905;51.012;4.724;2023-02-28T17:03:38;5.00;47.10
69739;DHT22;66905;51.012;4.724;2023-02-28T17:06:06;5.00;47.40
69739;DHT22;66905;51.012;4.724;2023-02-28T17:08:32;4.90;47.80
69739;DHT22;66905;51.012;4.724;2023-02-28T17:10:59;4.90;47.10
69739;DHT22;66905;51.012;4.724;2023-02-28T17:13:24;4.90;47.20
69739;DHT22;66905;51.012;4.724;2023-02-28T17:15:50;4.90;47.50
69739;DHT22;66905;51.012;4.724;2023-02-28T17:18:18;4.80;47.80
69739;DHT22;66905;51.012;4.724;2023-02-28T17:20:45;4.70;48.10
69739;DHT22;66905;51.012;4.724;2023-02-28T17:23:11;4.70;48.90
69739;DHT22;66905;51.012;4.724;2023-02-28T17:25:39;4.70;48.60
69739;DHT22;66905;51.012;4.724;2023-02-28T17:28:05;4.60;48.90
69739;DHT22;66905;51.012;4.724;2023-02-28T17:30:33;4.50;49.60
69739;DHT22;66905;51.012;4.724;2023-02-28T17:33:02;4.60;48.70
69739;DHT22;66905;51.012;4.724;2023-02-28T17:35:27;4.50;48.90
69739;DHT22;66905;51.012;4.724;2023-02-28T17:37:53;4.50;50.30
69739;DHT22;66905;51.012;4.724;2023-02-28T17:40:21;4.40;49.60
69739;DHT22;66905;51.012;4.724;2023-02-28T17:42:48;4.40;49.30
69739;DHT22;66905;51.012;4.724;2023-02-28T17:45:14;4.30;50.70
69739;DHT22;66905;51.012;4.724;2023-02-28T17:47:45;4.20;50.00
69739;DHT22;66905;51.012;4.724;2023-02-28T17:50:19;4.20;51.30
69739;DHT22;66905;51.012;4.724;2023-02-28T17:52:45;4.10;53.50
69739;DHT22;66905;51.012;4.724;2023-02-28T17:55:11;3.90;54.80
69739;DHT22;66905;51.012;4.724;2023-02-28T17:57:40;3.60;56.10
69739;DHT22;66905;51.012;4.724;2023-02-28T18:00:12;3.40;57.00
69739;DHT22;66905;51.012;4.724;2023-02-28T18:02:39;3.20;60.40
69739;DHT22;66905;51.012;4.724;2023-02-28T18:05:12;3.00;60.20
69739;DHT22;66905;51.012;4.724;2023-02-28T18:07:38;2.80;62.20
69739;DHT22;66905;51.012;4.724;2023-02-28T18:10:06;2.60;62.50
69739;DHT22;66905;51.012;4.724;2023-02-28T18:12:32;2.50;60.00
69739;DHT22;66905;51.012;4.724;2023-02-28T18:14:58;2.50;60.80
69739;DHT22;66905;51.012;4.724;2023-02-28T18:17:24;2.30;64.30
69739;DHT22;66905;51.012;4.724;2023-02-28T18:19:49;2.20;65.40
69739;DHT22;66905;51.012;4.724;2023-02-28T18:22:15;2.00;65.50
69739;DHT22;66905;51.012;4.724;2023-02-28T18:24:41;1.90;67.40
69739;DHT22;66905;51.012;4.724;2023-02-28T18:27:09;1.80;68.50
69739;DHT22;66905;51.012;4.724;2023-02-28T18:29:36;1.70;69.20
69739;DHT22;66905;51.012;4.724;2023-02-28T18:32:02;1.70;67.00
69739;DHT22;66905;51.012;4.724;2023-02-28T18:34:30;1.70;66.40
69739;DHT22;66905;51.012;4.724;2023-02-28T18:36:56;1.70;67.60
69739;DHT22;66905;51.012;4.724;2023-02-28T18:39:22;1.50;68.60
69739;DHT22;66905;51.012;4.724;2023-02-28T18:41:55;1.30;69.80
69739;DHT22;66905;51.012;4.724;2023-02-28T18:44:21;1.20;70.40
69739;DHT22;66905;51.012;4.724;2023-02-28T18:46:48;1.20;71.90
69739;DHT22;66905;51.012;4.724;2023-02-28T18:49:15;1.20;73.30
69739;DHT22;66905;51.012;4.724;2023-02-28T18:51:40;1.10;73.10
69739;DHT22;66905;51.012;4.724;2023-02-28T18:54:14;1.10;73.00
69739;DHT22;66905;51.012;4.724;2023-02-28T18:56:43;1.10;71.40
69739;DHT22;66905;51.012;4.724;2023-02-28T18:59:10;1.10;71.40
69739;DHT22;66905;51.012;4.724;2023-02-28T19:01:36;1.00;72.30
69739;DHT22;66905;51.012;4.724;2023-02-28T19:04:05;1.00;72.00
69739;DHT22;66905;51.012;4.724;2023-02-28T19:06:32;0.90;69.00
69739;DHT22;66905;51.012;4.724;2023-02-28T19:08:59;0.90;70.90
69739;DHT22;66905;51.012;4.724;2023-02-28T19:11:26;0.90;70.00
69739;DHT22;66905;51.012;4.724;2023-02-28T19:14:00;0.80;69.10